Portada
METAR-TAF:

METAR-TAF

Aeroports :

Baden-Baden, Alemanya

latitud: 48-46-43N, longitud: 008-04-47E, altitud: 124 m

Observació

L'informe es va fer fa 25 minuts, a les 03:20 UTC
Vent calma
Temperatura 15°C
Humitat 100%
Pressió 1023 hPa
Visibilitat 10 km o més
sense núvols per sota de 1500 mi sense presència de cumulonimbus.

METAR: EDSB 220320Z 00000KT CAVOK 15/15 Q1023

Hora: 05:45 (03:45 UTC)

Pronòstic

L'informe es va fer fa 45 minuts, a les 03:00 UTC
Pronòstic vàlid del 22 a les 04 UTC al 22 a les 24 UTC
Vent 3 kt amb direcció variable
Visibilitat 10 km o més
sense núvols per sota de 1500 mi sense presència de cumulonimbus.
Temporalment
l' 22 a les 10 UTC al 22 a les 24 UTC
Vent 5 kt del Nord

TAF: EDSB 220300Z 2204/2224 VRB03KT CAVOK TEMPO 2210/2224 35005KT

Observacions i pronòstics meteorològics de més de 4000 aeroports (METAR i TAF).

Les estacions disponibles són els punts grocs i vermells al mapa.

Posi el ratolí al punt desitjat per veure el nom de l'estació.

Feu clic per veure les observacions i els pronòstics meteorològics.

Per canviar el mapa: feu clic els botons verds amb una creu de color negre per apropar; al botó verd amb un guió per allunyar la imatge; o en les fletxes verdes per a mapes adjacents.


METAR-TAF: